ACA1019 CYYZ-KSAT
Flight info
| Callsign | ACA1019 |
|---|---|
| Flight time | 4h 9m |
| Altitude | 34000 |
| Route | MIXUT7 GNTRY DCT RINTE/N0464F360 Q139 IIU DCT LIT J131 TXK DCT WINDU QERVO3 |
| Aircraft | A320/M-SDE3FGHIRWY/LB1 |
Departure
| Time | 2026-05-06 16:28 |
|---|---|
| Airport | Toronto Pearson International Airport (CYYZ) |
Arrival
| Time | 2026-05-06 20:37 |
|---|---|
| Airport | San Antonio International Airport (KSAT) |
| Time | Latitude | Longitude | Altitude | Speed | Heading |
|---|---|---|---|---|---|
| 2026-05-06 16:13 | 43.67960 | -79.61776 | 570 ft | 0 kts | 99° |
| 2026-05-06 16:15 | 43.67960 | -79.61777 | 570 ft | 0 kts | 99° |
| 2026-05-06 16:17 | 43.67961 | -79.61784 | 561 ft | 3 kts | 99° |
| 2026-05-06 16:18 | 43.67964 | -79.61815 | 561 ft | 3 kts | 99° |
| 2026-05-06 16:18 | 43.67968 | -79.61845 | 561 ft | 3 kts | 99° |
| 2026-05-06 16:18 | 43.67972 | -79.61876 | 569 ft | 3 kts | 108° |
| 2026-05-06 16:18 | 43.67981 | -79.61903 | 564 ft | 3 kts | 131° |
| 2026-05-06 16:19 | 43.67994 | -79.61917 | 561 ft | 3 kts | 197° |
| 2026-05-06 16:19 | 43.68001 | -79.61911 | 565 ft | 1 kts | 226° |
| 2026-05-06 16:19 | 43.68002 | -79.61910 | 563 ft | 0 kts | 226° |
| 2026-05-06 16:21 | 43.67995 | -79.61927 | 561 ft | 7 kts | 245° |
| 2026-05-06 16:21 | 43.67972 | -79.62019 | 563 ft | 13 kts | 236° |
| 2026-05-06 16:21 | 43.67897 | -79.62126 | 562 ft | 16 kts | 220° |
| 2026-05-06 16:21 | 43.67808 | -79.62090 | 565 ft | 15 kts | 136° |
| 2026-05-06 16:22 | 43.67731 | -79.61989 | 567 ft | 15 kts | 136° |
| 2026-05-06 16:22 | 43.67649 | -79.61882 | 569 ft | 17 kts | 136° |
| 2026-05-06 16:22 | 43.67559 | -79.61764 | 568 ft | 18 kts | 136° |
| 2026-05-06 16:22 | 43.67460 | -79.61635 | 566 ft | 20 kts | 136° |
| 2026-05-06 16:23 | 43.67364 | -79.61509 | 575 ft | 19 kts | 136° |
| 2026-05-06 16:23 | 43.67270 | -79.61387 | 564 ft | 18 kts | 136° |
| 2026-05-06 16:23 | 43.67172 | -79.61375 | 575 ft | 14 kts | 219° |
| 2026-05-06 16:23 | 43.67104 | -79.61456 | 570 ft | 11 kts | 221° |
| 2026-05-06 16:24 | 43.67069 | -79.61502 | 568 ft | 10 kts | 225° |
| 2026-05-06 16:24 | 43.67012 | -79.61575 | 568 ft | 14 kts | 222° |
| 2026-05-06 16:24 | 43.66936 | -79.61671 | 567 ft | 16 kts | 222° |
| 2026-05-06 16:24 | 43.66858 | -79.61769 | 573 ft | 15 kts | 222° |
| 2026-05-06 16:25 | 43.66785 | -79.61860 | 574 ft | 14 kts | 222° |
| 2026-05-06 16:25 | 43.66716 | -79.61948 | 573 ft | 13 kts | 223° |
| 2026-05-06 16:25 | 43.66636 | -79.62048 | 567 ft | 19 kts | 222° |
| 2026-05-06 16:25 | 43.66530 | -79.62180 | 566 ft | 21 kts | 222° |
| 2026-05-06 16:26 | 43.66427 | -79.62311 | 562 ft | 20 kts | 222° |
| 2026-05-06 16:26 | 43.66328 | -79.62436 | 564 ft | 19 kts | 222° |
| 2026-05-06 16:26 | 43.66223 | -79.62489 | 562 ft | 16 kts | 154° |
| 2026-05-06 16:26 | 43.66147 | -79.62398 | 560 ft | 12 kts | 137° |
| 2026-05-06 16:27 | 43.66124 | -79.62315 | 566 ft | 8 kts | 65° |
| 2026-05-06 16:27 | 43.66144 | -79.62282 | 568 ft | 0 kts | 46° |
| 2026-05-06 16:27 | 43.66176 | -79.62237 | 570 ft | 29 kts | 46° |
| 2026-05-06 16:27 | 43.66501 | -79.61766 | 568 ft | 103 kts | 46° |
| 2026-05-06 16:28 | 43.67126 | -79.60856 | 569 ft | 156 kts | 46° |
| 2026-05-06 16:28 | 43.67918 | -79.59708 | 1061 ft | 170 kts | 47° |
| 2026-05-06 16:28 | 43.68754 | -79.58512 | 1806 ft | 172 kts | 47° |
| 2026-05-06 16:28 | 43.69590 | -79.57323 | 2403 ft | 178 kts | 47° |
| 2026-05-06 16:29 | 43.70500 | -79.56022 | 2605 ft | 199 kts | 47° |
| 2026-05-06 16:29 | 43.71507 | -79.54576 | 2816 ft | 224 kts | 47° |
| 2026-05-06 16:29 | 43.72638 | -79.52944 | 3142 ft | 246 kts | 47° |
| 2026-05-06 16:29 | 43.73776 | -79.51080 | 3698 ft | 259 kts | 62° |
| 2026-05-06 16:30 | 43.74272 | -79.48691 | 4433 ft | 263 kts | 90° |
| 2026-05-06 16:30 | 43.74123 | -79.47000 | 4946 ft | 264 kts | 106° |
| 2026-05-06 16:30 | 43.73302 | -79.43816 | 5940 ft | 268 kts | 124° |
| 2026-05-06 16:30 | 43.72041 | -79.41923 | 6605 ft | 271 kts | 149° |
| 2026-05-06 16:31 | 43.70385 | -79.40633 | 7264 ft | 276 kts | 155° |
| 2026-05-06 16:31 | 43.68669 | -79.39388 | 7985 ft | 280 kts | 158° |
| 2026-05-06 16:31 | 43.66817 | -79.38592 | 8691 ft | 279 kts | 175° |
| 2026-05-06 16:31 | 43.64881 | -79.38567 | 9393 ft | 279 kts | 192° |
| 2026-05-06 16:32 | 43.63030 | -79.39306 | 10121 ft | 276 kts | 208° |
| 2026-05-06 16:32 | 43.61270 | -79.40545 | 10427 ft | 295 kts | 211° |
| 2026-05-06 16:32 | 43.59379 | -79.41901 | 10549 ft | 317 kts | 210° |
| 2026-05-06 16:32 | 43.57377 | -79.43331 | 10670 ft | 338 kts | 210° |
| 2026-05-06 16:33 | 43.55240 | -79.44917 | 11007 ft | 348 kts | 215° |
| 2026-05-06 16:33 | 43.53285 | -79.46895 | 11582 ft | 350 kts | 220° |
| 2026-05-06 16:33 | 43.51388 | -79.48914 | 12232 ft | 350 kts | 220° |
| 2026-05-06 16:34 | 43.47887 | -79.53498 | 13449 ft | 349 kts | 231° |
| 2026-05-06 16:34 | 43.46318 | -79.56061 | 14008 ft | 351 kts | 231° |
| 2026-05-06 16:34 | 43.44739 | -79.58645 | 14549 ft | 354 kts | 231° |
| 2026-05-06 16:34 | 43.43151 | -79.61245 | 15087 ft | 356 kts | 231° |
| 2026-05-06 16:35 | 43.41549 | -79.63858 | 15597 ft | 358 kts | 231° |
| 2026-05-06 16:35 | 43.39932 | -79.66483 | 16112 ft | 361 kts | 231° |
| 2026-05-06 16:35 | 43.38305 | -79.69121 | 16593 ft | 363 kts | 231° |
| 2026-05-06 16:35 | 43.36668 | -79.71776 | 17096 ft | 366 kts | 231° |
| 2026-05-06 16:36 | 43.35018 | -79.74453 | 17580 ft | 368 kts | 231° |
| 2026-05-06 16:36 | 43.33358 | -79.77146 | 18057 ft | 370 kts | 231° |
| 2026-05-06 16:36 | 43.31687 | -79.79848 | 18528 ft | 372 kts | 231° |
| 2026-05-06 16:36 | 43.30003 | -79.82566 | 19000 ft | 375 kts | 231° |
| 2026-05-06 16:37 | 43.28311 | -79.85295 | 19473 ft | 377 kts | 231° |
| 2026-05-06 16:37 | 43.26610 | -79.88044 | 19932 ft | 378 kts | 232° |
| 2026-05-06 16:37 | 43.25119 | -79.91017 | 20370 ft | 379 kts | 242° |
| 2026-05-06 16:37 | 43.24060 | -79.94317 | 20786 ft | 380 kts | 251° |
| 2026-05-06 16:38 | 43.23437 | -79.97848 | 21184 ft | 382 kts | 257° |
| 2026-05-06 16:38 | 43.22920 | -80.01436 | 21591 ft | 384 kts | 257° |
| 2026-05-06 16:38 | 43.22406 | -80.04985 | 21969 ft | 385 kts | 258° |
| 2026-05-06 16:38 | 43.21882 | -80.08587 | 22366 ft | 386 kts | 258° |
| 2026-05-06 16:39 | 43.21354 | -80.12198 | 22734 ft | 387 kts | 258° |
| 2026-05-06 16:39 | 43.20819 | -80.15815 | 23095 ft | 388 kts | 258° |
| 2026-05-06 16:39 | 43.20278 | -80.19447 | 23445 ft | 389 kts | 258° |
| 2026-05-06 16:39 | 43.19728 | -80.23089 | 23794 ft | 391 kts | 256° |
| 2026-05-06 16:40 | 43.18890 | -80.26629 | 24124 ft | 392 kts | 248° |
| 2026-05-06 16:40 | 43.17699 | -80.29990 | 24553 ft | 392 kts | 245° |
| 2026-05-06 16:40 | 43.16488 | -80.33322 | 25045 ft | 389 kts | 245° |
| 2026-05-06 16:40 | 43.15286 | -80.36632 | 25541 ft | 387 kts | 245° |
| 2026-05-06 16:41 | 43.14092 | -80.39922 | 26030 ft | 385 kts | 245° |
| 2026-05-06 16:41 | 43.12906 | -80.43191 | 26508 ft | 383 kts | 245° |
| 2026-05-06 16:41 | 43.11723 | -80.46446 | 26977 ft | 381 kts | 245° |
| 2026-05-06 16:41 | 43.10548 | -80.49679 | 27440 ft | 379 kts | 245° |
| 2026-05-06 16:42 | 43.09377 | -80.52900 | 27906 ft | 377 kts | 245° |
| 2026-05-06 16:42 | 43.08214 | -80.56096 | 28378 ft | 374 kts | 245° |
| 2026-05-06 16:42 | 43.07055 | -80.59271 | 28828 ft | 372 kts | 245° |
| 2026-05-06 16:42 | 43.05901 | -80.62428 | 29271 ft | 370 kts | 245° |
| 2026-05-06 16:43 | 43.04754 | -80.65564 | 29718 ft | 368 kts | 245° |
| 2026-05-06 16:43 | 43.03611 | -80.68686 | 30155 ft | 366 kts | 245° |
| 2026-05-06 16:43 | 43.02474 | -80.71790 | 30588 ft | 365 kts | 245° |
| 2026-05-06 16:43 | 43.01340 | -80.74877 | 31021 ft | 363 kts | 245° |
| 2026-05-06 16:44 | 43.00208 | -80.77945 | 31454 ft | 361 kts | 245° |
| 2026-05-06 16:44 | 42.99098 | -80.80955 | 31876 ft | 359 kts | 245° |
| 2026-05-06 16:44 | 42.97978 | -80.83993 | 32279 ft | 357 kts | 245° |
| 2026-05-06 16:44 | 42.96865 | -80.87018 | 32672 ft | 355 kts | 245° |
| 2026-05-06 16:45 | 42.95756 | -80.90024 | 33068 ft | 354 kts | 245° |
| 2026-05-06 16:45 | 42.94650 | -80.93017 | 33479 ft | 352 kts | 245° |
| 2026-05-06 16:45 | 42.93549 | -80.95987 | 33862 ft | 350 kts | 245° |
| 2026-05-06 16:45 | 42.92451 | -80.98948 | 34233 ft | 348 kts | 246° |
| 2026-05-06 16:46 | 42.91360 | -81.01890 | 34566 ft | 347 kts | 246° |
| 2026-05-06 16:46 | 42.90272 | -81.04826 | 34860 ft | 347 kts | 246° |
| 2026-05-06 16:46 | 42.89181 | -81.07761 | 35151 ft | 346 kts | 246° |
| 2026-05-06 16:46 | 42.88097 | -81.10684 | 35436 ft | 345 kts | 246° |
| 2026-05-06 16:47 | 42.87010 | -81.13607 | 35707 ft | 345 kts | 245° |
| 2026-05-06 16:47 | 42.85922 | -81.16521 | 35887 ft | 346 kts | 246° |
| 2026-05-06 16:47 | 42.84826 | -81.19456 | 35935 ft | 350 kts | 246° |
| 2026-05-06 16:48 | 42.82597 | -81.25430 | 35934 ft | 361 kts | 246° |
| 2026-05-06 16:48 | 42.80315 | -81.31547 | 35942 ft | 363 kts | 246° |
| 2026-05-06 16:49 | 42.78019 | -81.37674 | 35943 ft | 363 kts | 246° |
| 2026-05-06 16:49 | 42.75368 | -81.43535 | 35953 ft | 369 kts | 234° |
| 2026-05-06 16:50 | 42.71850 | -81.48673 | 35956 ft | 371 kts | 233° |
| 2026-05-06 16:50 | 42.68326 | -81.53801 | 35963 ft | 371 kts | 233° |
| 2026-05-06 16:51 | 42.64829 | -81.58899 | 35971 ft | 370 kts | 233° |
| 2026-05-06 16:51 | 42.61316 | -81.64007 | 35976 ft | 370 kts | 233° |
| 2026-05-06 16:52 | 42.57798 | -81.69101 | 35982 ft | 370 kts | 233° |
| 2026-05-06 16:52 | 42.54285 | -81.74175 | 35986 ft | 369 kts | 233° |
| 2026-05-06 16:53 | 42.50731 | -81.79192 | 35993 ft | 371 kts | 228° |
| 2026-05-06 16:53 | 42.46669 | -81.83535 | 35991 ft | 374 kts | 226° |
| 2026-05-06 16:54 | 42.42566 | -81.87864 | 35993 ft | 374 kts | 226° |
| 2026-05-06 16:54 | 42.38468 | -81.92195 | 35988 ft | 373 kts | 226° |
| 2026-05-06 16:55 | 42.34374 | -81.96509 | 35990 ft | 373 kts | 226° |
| 2026-05-06 16:55 | 42.30277 | -82.00807 | 35988 ft | 373 kts | 226° |
| 2026-05-06 16:56 | 42.26173 | -82.05109 | 35994 ft | 373 kts | 226° |
| 2026-05-06 16:56 | 42.22090 | -82.09406 | 35992 ft | 371 kts | 227° |
| 2026-05-06 16:57 | 42.18006 | -82.13687 | 35984 ft | 372 kts | 226° |
| 2026-05-06 16:57 | 42.13915 | -82.17954 | 35988 ft | 372 kts | 227° |
| 2026-05-06 16:58 | 42.09853 | -82.22192 | 35982 ft | 371 kts | 226° |
| 2026-05-06 16:58 | 42.05764 | -82.26452 | 35980 ft | 372 kts | 226° |
| 2026-05-06 16:59 | 42.01665 | -82.30718 | 35990 ft | 373 kts | 226° |
| 2026-05-06 16:59 | 41.97559 | -82.34977 | 35997 ft | 372 kts | 226° |
| 2026-05-06 17:00 | 41.93460 | -82.39217 | 35998 ft | 371 kts | 226° |
| 2026-05-06 17:00 | 41.89364 | -82.43457 | 35994 ft | 371 kts | 227° |
| 2026-05-06 17:01 | 41.85282 | -82.47678 | 36000 ft | 370 kts | 226° |
| 2026-05-06 17:01 | 41.81196 | -82.51892 | 36001 ft | 371 kts | 226° |
| 2026-05-06 17:02 | 41.77127 | -82.56081 | 36002 ft | 371 kts | 226° |
| 2026-05-06 17:02 | 41.73031 | -82.60281 | 36002 ft | 371 kts | 226° |
| 2026-05-06 17:03 | 41.68932 | -82.64481 | 36006 ft | 370 kts | 226° |
| 2026-05-06 17:03 | 41.64848 | -82.68676 | 36007 ft | 370 kts | 226° |
| 2026-05-06 17:04 | 41.60759 | -82.72856 | 36004 ft | 370 kts | 227° |
| 2026-05-06 17:04 | 41.56697 | -82.77003 | 35999 ft | 369 kts | 227° |
| 2026-05-06 17:05 | 41.52611 | -82.81174 | 35998 ft | 370 kts | 227° |
| 2026-05-06 17:05 | 41.48514 | -82.85344 | 35999 ft | 370 kts | 227° |
| 2026-05-06 17:06 | 41.44416 | -82.89510 | 36002 ft | 370 kts | 227° |
| 2026-05-06 17:06 | 41.40312 | -82.93673 | 36005 ft | 370 kts | 227° |
| 2026-05-06 17:07 | 41.36212 | -82.97828 | 36005 ft | 370 kts | 227° |
| 2026-05-06 17:07 | 41.32110 | -83.01964 | 36008 ft | 369 kts | 227° |
| 2026-05-06 17:08 | 41.28018 | -83.06092 | 36003 ft | 369 kts | 227° |
| 2026-05-06 17:08 | 41.23929 | -83.10216 | 36002 ft | 369 kts | 227° |
| 2026-05-06 17:09 | 41.19856 | -83.14312 | 36002 ft | 369 kts | 227° |
| 2026-05-06 17:09 | 41.15768 | -83.18421 | 36000 ft | 369 kts | 227° |
| 2026-05-06 17:10 | 41.11674 | -83.22526 | 36000 ft | 368 kts | 227° |
| 2026-05-06 17:10 | 41.07585 | -83.26621 | 35997 ft | 368 kts | 227° |
| 2026-05-06 17:11 | 41.03517 | -83.30690 | 36003 ft | 368 kts | 227° |
| 2026-05-06 17:11 | 40.99431 | -83.34766 | 36003 ft | 368 kts | 227° |
| 2026-05-06 17:12 | 40.95341 | -83.38835 | 36005 ft | 367 kts | 227° |
| 2026-05-06 17:12 | 40.91259 | -83.42903 | 36010 ft | 368 kts | 227° |
| 2026-05-06 17:13 | 40.87168 | -83.46972 | 36015 ft | 368 kts | 227° |
| 2026-05-06 17:13 | 40.83106 | -83.51001 | 36015 ft | 367 kts | 227° |
| 2026-05-06 17:14 | 40.79019 | -83.55046 | 36011 ft | 367 kts | 227° |
| 2026-05-06 17:14 | 40.74940 | -83.59081 | 36013 ft | 366 kts | 227° |
| 2026-05-06 17:15 | 40.70865 | -83.63100 | 36010 ft | 365 kts | 227° |
| 2026-05-06 17:15 | 40.66798 | -83.67113 | 36012 ft | 365 kts | 228° |
| 2026-05-06 17:16 | 40.62748 | -83.71098 | 36012 ft | 365 kts | 228° |
| 2026-05-06 17:16 | 40.58688 | -83.75088 | 36012 ft | 363 kts | 228° |
| 2026-05-06 17:17 | 40.54639 | -83.79059 | 36014 ft | 363 kts | 228° |
| 2026-05-06 17:17 | 40.50595 | -83.83019 | 36017 ft | 362 kts | 228° |
| 2026-05-06 17:18 | 40.47239 | -83.86307 | 36022 ft | 362 kts | 228° |
| 2026-05-06 17:18 | 40.43203 | -83.90250 | 36017 ft | 361 kts | 228° |
| 2026-05-06 17:19 | 40.39168 | -83.94183 | 36019 ft | 361 kts | 228° |
| 2026-05-06 17:19 | 40.35155 | -83.98088 | 36020 ft | 361 kts | 228° |
| 2026-05-06 17:20 | 40.31122 | -84.02001 | 36021 ft | 360 kts | 228° |
| 2026-05-06 17:20 | 40.26909 | -84.05673 | 36021 ft | 370 kts | 222° |
| 2026-05-06 17:21 | 40.22409 | -84.08949 | 36021 ft | 370 kts | 222° |
| 2026-05-06 17:21 | 40.17896 | -84.12205 | 36021 ft | 370 kts | 222° |
| 2026-05-06 17:22 | 40.13388 | -84.15467 | 36020 ft | 370 kts | 222° |
| 2026-05-06 17:22 | 40.08886 | -84.18736 | 36020 ft | 370 kts | 222° |
| 2026-05-06 17:23 | 40.04373 | -84.22008 | 36021 ft | 370 kts | 222° |
| 2026-05-06 17:23 | 39.99870 | -84.25260 | 36022 ft | 370 kts | 222° |
| 2026-05-06 17:24 | 39.95370 | -84.28510 | 36026 ft | 370 kts | 222° |
| 2026-05-06 17:24 | 39.90898 | -84.31739 | 36029 ft | 370 kts | 222° |
| 2026-05-06 17:25 | 39.86396 | -84.34966 | 36026 ft | 370 kts | 222° |
| 2026-05-06 17:25 | 39.81888 | -84.38191 | 36029 ft | 369 kts | 222° |
| 2026-05-06 17:26 | 39.77390 | -84.41412 | 36031 ft | 369 kts | 222° |
| 2026-05-06 17:26 | 39.72884 | -84.44632 | 36031 ft | 369 kts | 222° |
| 2026-05-06 17:27 | 39.68382 | -84.47850 | 36035 ft | 369 kts | 222° |
| 2026-05-06 17:27 | 39.63916 | -84.51035 | 36048 ft | 369 kts | 222° |
| 2026-05-06 17:28 | 39.59414 | -84.54241 | 36040 ft | 369 kts | 222° |
| 2026-05-06 17:28 | 39.54901 | -84.57448 | 36042 ft | 370 kts | 222° |
| 2026-05-06 17:29 | 39.50384 | -84.60655 | 36042 ft | 370 kts | 222° |
| 2026-05-06 17:29 | 39.45868 | -84.63859 | 36042 ft | 370 kts | 222° |
| 2026-05-06 17:30 | 39.41353 | -84.67048 | 36034 ft | 370 kts | 221° |
| 2026-05-06 17:30 | 39.36833 | -84.70242 | 36034 ft | 370 kts | 221° |
| 2026-05-06 17:31 | 39.32308 | -84.73430 | 36034 ft | 370 kts | 221° |
| 2026-05-06 17:31 | 39.27813 | -84.76595 | 36032 ft | 370 kts | 221° |
| 2026-05-06 17:32 | 39.23289 | -84.79778 | 36031 ft | 370 kts | 221° |
| 2026-05-06 17:32 | 39.18768 | -84.82955 | 36027 ft | 370 kts | 221° |
| 2026-05-06 17:33 | 39.14233 | -84.86134 | 36027 ft | 371 kts | 221° |
| 2026-05-06 17:33 | 39.09701 | -84.89318 | 36026 ft | 371 kts | 221° |
| 2026-05-06 17:34 | 39.05200 | -84.92474 | 36025 ft | 371 kts | 221° |
| 2026-05-06 17:34 | 39.00662 | -84.95634 | 36029 ft | 371 kts | 221° |
| 2026-05-06 17:35 | 38.96131 | -84.98784 | 36029 ft | 371 kts | 221° |
| 2026-05-06 17:35 | 38.91586 | -85.01951 | 36026 ft | 371 kts | 221° |
| 2026-05-06 17:36 | 38.84766 | -85.06688 | 36022 ft | 372 kts | 221° |
| 2026-05-06 17:36 | 38.80245 | -85.09830 | 36025 ft | 372 kts | 221° |
| 2026-05-06 17:37 | 38.75690 | -85.12991 | 36029 ft | 372 kts | 221° |
| 2026-05-06 17:37 | 38.71122 | -85.16142 | 36032 ft | 373 kts | 221° |
| 2026-05-06 17:38 | 38.66562 | -85.19294 | 36034 ft | 373 kts | 221° |
| 2026-05-06 17:38 | 38.61985 | -85.22453 | 36039 ft | 374 kts | 221° |
| 2026-05-06 17:39 | 38.57411 | -85.25602 | 36048 ft | 374 kts | 221° |
| 2026-05-06 17:39 | 38.52827 | -85.28752 | 36048 ft | 373 kts | 221° |
| 2026-05-06 17:40 | 38.48251 | -85.31900 | 36040 ft | 374 kts | 221° |
| 2026-05-06 17:40 | 38.43668 | -85.35041 | 36050 ft | 374 kts | 221° |
| 2026-05-06 17:41 | 38.39117 | -85.38157 | 36036 ft | 373 kts | 221° |
| 2026-05-06 17:41 | 38.34536 | -85.41287 | 36032 ft | 373 kts | 221° |
| 2026-05-06 17:42 | 38.29951 | -85.44410 | 36032 ft | 373 kts | 221° |
| 2026-05-06 17:42 | 38.25374 | -85.47524 | 36031 ft | 373 kts | 221° |
| 2026-05-06 17:43 | 38.20804 | -85.50637 | 36032 ft | 373 kts | 221° |
| 2026-05-06 17:43 | 38.16232 | -85.53745 | 36032 ft | 373 kts | 221° |
| 2026-05-06 17:44 | 38.11812 | -85.56997 | 36031 ft | 360 kts | 229° |
| 2026-05-06 17:44 | 38.10017 | -85.59119 | 36030 ft | 348 kts | 238° |
| 2026-05-06 17:44 | 38.08603 | -85.61556 | 36028 ft | 339 kts | 246° |
| 2026-05-06 17:45 | 38.06270 | -85.66748 | 36026 ft | 339 kts | 246° |
| 2026-05-06 17:45 | 38.03912 | -85.71932 | 36025 ft | 339 kts | 246° |
| 2026-05-06 17:46 | 38.01547 | -85.77109 | 36024 ft | 340 kts | 246° |
| 2026-05-06 17:46 | 37.99190 | -85.82271 | 36023 ft | 340 kts | 246° |
| 2026-05-06 17:47 | 37.96828 | -85.87454 | 36019 ft | 340 kts | 246° |
| 2026-05-06 17:47 | 37.94458 | -85.92641 | 36016 ft | 340 kts | 246° |
| 2026-05-06 17:48 | 37.92078 | -85.97821 | 36015 ft | 340 kts | 245° |
| 2026-05-06 17:48 | 37.89695 | -86.03004 | 36013 ft | 340 kts | 246° |
| 2026-05-06 17:49 | 37.87316 | -86.08187 | 36012 ft | 340 kts | 245° |
| 2026-05-06 17:49 | 37.84946 | -86.13326 | 36013 ft | 340 kts | 245° |
| 2026-05-06 17:50 | 37.82555 | -86.18507 | 36015 ft | 340 kts | 245° |
| 2026-05-06 17:50 | 37.80169 | -86.23671 | 36018 ft | 340 kts | 245° |
| 2026-05-06 17:51 | 37.77793 | -86.28820 | 36020 ft | 340 kts | 245° |
| 2026-05-06 17:51 | 37.75403 | -86.33985 | 36024 ft | 340 kts | 245° |
| 2026-05-06 17:52 | 37.73000 | -86.39154 | 36026 ft | 341 kts | 245° |
| 2026-05-06 17:52 | 37.70596 | -86.44313 | 36024 ft | 341 kts | 245° |
| 2026-05-06 17:53 | 37.68193 | -86.49468 | 36026 ft | 341 kts | 245° |
| 2026-05-06 17:53 | 37.65801 | -86.54601 | 36025 ft | 341 kts | 245° |
| 2026-05-06 17:54 | 37.63400 | -86.59759 | 36022 ft | 341 kts | 245° |
| 2026-05-06 17:54 | 37.60985 | -86.64918 | 36023 ft | 341 kts | 245° |
| 2026-05-06 17:55 | 37.58567 | -86.70068 | 36029 ft | 341 kts | 245° |
| 2026-05-06 17:55 | 37.56148 | -86.75216 | 36033 ft | 341 kts | 245° |
| 2026-05-06 17:56 | 37.53726 | -86.80368 | 36033 ft | 342 kts | 245° |
| 2026-05-06 17:56 | 37.51303 | -86.85515 | 36042 ft | 341 kts | 245° |
| 2026-05-06 17:57 | 37.48880 | -86.90666 | 36055 ft | 341 kts | 245° |
| 2026-05-06 17:57 | 37.46471 | -86.95777 | 36056 ft | 342 kts | 245° |
| 2026-05-06 17:58 | 37.44038 | -87.00912 | 36057 ft | 341 kts | 245° |
| 2026-05-06 17:58 | 37.41603 | -87.06047 | 36056 ft | 341 kts | 245° |
| 2026-05-06 17:59 | 37.39177 | -87.11168 | 36053 ft | 340 kts | 245° |
| 2026-05-06 17:59 | 37.36755 | -87.16279 | 36051 ft | 340 kts | 245° |
| 2026-05-06 18:00 | 37.34333 | -87.21351 | 36050 ft | 341 kts | 245° |
| 2026-05-06 18:00 | 37.31897 | -87.26456 | 36052 ft | 340 kts | 245° |
| 2026-05-06 18:01 | 37.29464 | -87.31555 | 36054 ft | 340 kts | 245° |
| 2026-05-06 18:01 | 37.27028 | -87.36647 | 36053 ft | 340 kts | 245° |
| 2026-05-06 18:02 | 37.24589 | -87.41735 | 36060 ft | 340 kts | 245° |
| 2026-05-06 18:02 | 37.22153 | -87.46813 | 36059 ft | 339 kts | 245° |
| 2026-05-06 18:03 | 37.19739 | -87.51845 | 36070 ft | 337 kts | 245° |
| 2026-05-06 18:03 | 37.17323 | -87.56866 | 36075 ft | 335 kts | 245° |
| 2026-05-06 18:04 | 37.14912 | -87.61859 | 36072 ft | 334 kts | 245° |
| 2026-05-06 18:04 | 37.12510 | -87.66840 | 36072 ft | 334 kts | 245° |
| 2026-05-06 18:05 | 37.10105 | -87.71812 | 36066 ft | 333 kts | 245° |
| 2026-05-06 18:05 | 37.07707 | -87.76774 | 36064 ft | 333 kts | 245° |
| 2026-05-06 18:06 | 37.05315 | -87.81708 | 36064 ft | 334 kts | 244° |
| 2026-05-06 18:06 | 37.02906 | -87.86672 | 36068 ft | 333 kts | 245° |
| 2026-05-06 18:07 | 37.00497 | -87.91628 | 36065 ft | 334 kts | 245° |
| 2026-05-06 18:07 | 36.98076 | -87.96601 | 36062 ft | 334 kts | 245° |
| 2026-05-06 18:08 | 36.95653 | -88.01566 | 36069 ft | 335 kts | 244° |
| 2026-05-06 18:08 | 36.93226 | -88.06523 | 36073 ft | 334 kts | 244° |
| 2026-05-06 18:09 | 36.90804 | -88.11464 | 36078 ft | 333 kts | 244° |
| 2026-05-06 18:09 | 36.88403 | -88.16367 | 36078 ft | 332 kts | 244° |
| 2026-05-06 18:10 | 36.85999 | -88.21286 | 36077 ft | 332 kts | 244° |
| 2026-05-06 18:10 | 36.83587 | -88.26199 | 36074 ft | 332 kts | 244° |
| 2026-05-06 18:11 | 36.81577 | -88.30286 | 36075 ft | 332 kts | 244° |
| 2026-05-06 18:11 | 36.79152 | -88.35197 | 36077 ft | 332 kts | 244° |
| 2026-05-06 18:12 | 36.76338 | -88.40901 | 36078 ft | 332 kts | 244° |
| 2026-05-06 18:12 | 36.74303 | -88.45021 | 36078 ft | 332 kts | 244° |
| 2026-05-06 18:13 | 36.71892 | -88.49894 | 36076 ft | 333 kts | 244° |
| 2026-05-06 18:13 | 36.69463 | -88.54798 | 36078 ft | 333 kts | 244° |
| 2026-05-06 18:14 | 36.67024 | -88.59701 | 36073 ft | 332 kts | 244° |
| 2026-05-06 18:14 | 36.64592 | -88.64599 | 36071 ft | 332 kts | 244° |
| 2026-05-06 18:15 | 36.62163 | -88.69485 | 36073 ft | 332 kts | 244° |
| 2026-05-06 18:15 | 36.59731 | -88.74372 | 36069 ft | 332 kts | 244° |
| 2026-05-06 18:16 | 36.57295 | -88.79264 | 36065 ft | 333 kts | 244° |
| 2026-05-06 18:16 | 36.54854 | -88.84149 | 36055 ft | 332 kts | 244° |
| 2026-05-06 18:17 | 36.52423 | -88.88996 | 36062 ft | 332 kts | 244° |
| 2026-05-06 18:17 | 36.49977 | -88.93879 | 36057 ft | 333 kts | 244° |
| 2026-05-06 18:18 | 36.47532 | -88.98759 | 36056 ft | 332 kts | 244° |
| 2026-05-06 18:18 | 36.45076 | -89.03631 | 36050 ft | 333 kts | 243° |
| 2026-05-06 18:19 | 36.42623 | -89.08497 | 36051 ft | 332 kts | 244° |
| 2026-05-06 18:19 | 36.40176 | -89.13348 | 36054 ft | 331 kts | 243° |
| 2026-05-06 18:20 | 36.37729 | -89.18186 | 36053 ft | 331 kts | 244° |
| 2026-05-06 18:20 | 36.35287 | -89.23031 | 36041 ft | 331 kts | 244° |
| 2026-05-06 18:21 | 36.32848 | -89.27859 | 36046 ft | 331 kts | 244° |
| 2026-05-06 18:21 | 36.30393 | -89.32687 | 36042 ft | 331 kts | 244° |
| 2026-05-06 18:22 | 36.27938 | -89.37519 | 36055 ft | 332 kts | 243° |
| 2026-05-06 18:22 | 36.25476 | -89.42354 | 36059 ft | 331 kts | 244° |
| 2026-05-06 18:23 | 36.23021 | -89.47174 | 36056 ft | 331 kts | 243° |
| 2026-05-06 18:23 | 36.20566 | -89.51991 | 36062 ft | 330 kts | 243° |
| 2026-05-06 18:24 | 36.18132 | -89.56761 | 36063 ft | 330 kts | 243° |
| 2026-05-06 18:24 | 36.15675 | -89.61569 | 36067 ft | 330 kts | 243° |
| 2026-05-06 18:25 | 36.13215 | -89.66366 | 36064 ft | 330 kts | 243° |
| 2026-05-06 18:25 | 36.10766 | -89.71144 | 36062 ft | 329 kts | 243° |
| 2026-05-06 18:26 | 36.08309 | -89.75927 | 36063 ft | 329 kts | 243° |
| 2026-05-06 18:26 | 36.05850 | -89.80717 | 36059 ft | 330 kts | 243° |
| 2026-05-06 18:27 | 36.03406 | -89.85465 | 36066 ft | 330 kts | 243° |
| 2026-05-06 18:27 | 36.00927 | -89.90255 | 36075 ft | 331 kts | 243° |
| 2026-05-06 18:28 | 35.98462 | -89.95041 | 36075 ft | 330 kts | 243° |
| 2026-05-06 18:28 | 35.95996 | -89.99815 | 36077 ft | 330 kts | 243° |
| 2026-05-06 18:29 | 35.93516 | -90.04591 | 36077 ft | 331 kts | 243° |
| 2026-05-06 18:29 | 35.91034 | -90.09368 | 36078 ft | 331 kts | 243° |
| 2026-05-06 18:30 | 35.89809 | -90.11724 | 36286 ft | 330 kts | 243° |
| 2026-05-06 18:30 | 35.88581 | -90.14095 | 36686 ft | 327 kts | 243° |
| 2026-05-06 18:30 | 35.87359 | -90.16453 | 37034 ft | 325 kts | 243° |
| 2026-05-06 18:30 | 35.86144 | -90.18789 | 37431 ft | 321 kts | 243° |
| 2026-05-06 18:31 | 35.84943 | -90.21094 | 37800 ft | 318 kts | 243° |
| 2026-05-06 18:31 | 35.83750 | -90.23388 | 38032 ft | 318 kts | 243° |
| 2026-05-06 18:31 | 35.81360 | -90.27975 | 38064 ft | 317 kts | 243° |
| 2026-05-06 18:32 | 35.78966 | -90.32553 | 38063 ft | 318 kts | 243° |
| 2026-05-06 18:32 | 35.76573 | -90.37139 | 38072 ft | 318 kts | 243° |
| 2026-05-06 18:33 | 35.74178 | -90.41721 | 38072 ft | 318 kts | 243° |
| 2026-05-06 18:33 | 35.71787 | -90.46292 | 38073 ft | 317 kts | 243° |
| 2026-05-06 18:34 | 35.69391 | -90.50856 | 38073 ft | 318 kts | 243° |
| 2026-05-06 18:34 | 35.66992 | -90.55404 | 38074 ft | 319 kts | 243° |
| 2026-05-06 18:35 | 35.64585 | -90.59987 | 38075 ft | 320 kts | 243° |
| 2026-05-06 18:35 | 35.62160 | -90.64582 | 38075 ft | 320 kts | 243° |
| 2026-05-06 18:36 | 35.59734 | -90.69182 | 38077 ft | 321 kts | 243° |
| 2026-05-06 18:36 | 35.57306 | -90.73776 | 38085 ft | 321 kts | 243° |
| 2026-05-06 18:37 | 35.54880 | -90.78367 | 38086 ft | 321 kts | 243° |
| 2026-05-06 18:37 | 35.52450 | -90.82961 | 38083 ft | 321 kts | 243° |
| 2026-05-06 18:38 | 35.50011 | -90.87551 | 38083 ft | 321 kts | 243° |
| 2026-05-06 18:38 | 35.47583 | -90.92121 | 38090 ft | 321 kts | 243° |
| 2026-05-06 18:39 | 35.45137 | -90.96711 | 38097 ft | 321 kts | 243° |
| 2026-05-06 18:40 | 35.41473 | -91.03598 | 38093 ft | 321 kts | 243° |
| 2026-05-06 18:40 | 35.39025 | -91.08187 | 38102 ft | 322 kts | 243° |
| 2026-05-06 18:41 | 35.36567 | -91.12776 | 38098 ft | 322 kts | 243° |
| 2026-05-06 18:41 | 35.34130 | -91.17330 | 38100 ft | 322 kts | 243° |
| 2026-05-06 18:42 | 35.31668 | -91.21927 | 38101 ft | 322 kts | 243° |
| 2026-05-06 18:42 | 35.29213 | -91.26512 | 38104 ft | 322 kts | 243° |
| 2026-05-06 18:43 | 35.26758 | -91.31097 | 38107 ft | 322 kts | 242° |
| 2026-05-06 18:43 | 35.24305 | -91.35645 | 38110 ft | 322 kts | 242° |
| 2026-05-06 18:44 | 35.21829 | -91.40227 | 38109 ft | 322 kts | 242° |
| 2026-05-06 18:44 | 35.19364 | -91.44806 | 38110 ft | 323 kts | 242° |
| 2026-05-06 18:45 | 35.16891 | -91.49399 | 38111 ft | 323 kts | 242° |
| 2026-05-06 18:45 | 35.14410 | -91.53978 | 38111 ft | 323 kts | 242° |
| 2026-05-06 18:46 | 35.11947 | -91.58534 | 38114 ft | 324 kts | 242° |
| 2026-05-06 18:46 | 35.09457 | -91.63126 | 38114 ft | 324 kts | 242° |
| 2026-05-06 18:47 | 35.06953 | -91.67728 | 38117 ft | 325 kts | 242° |
| 2026-05-06 18:47 | 35.04453 | -91.72327 | 38115 ft | 325 kts | 242° |
| 2026-05-06 18:48 | 35.01952 | -91.76936 | 38111 ft | 325 kts | 242° |
| 2026-05-06 18:48 | 34.99446 | -91.81537 | 38108 ft | 326 kts | 242° |
| 2026-05-06 18:49 | 34.96956 | -91.86106 | 38100 ft | 326 kts | 242° |
| 2026-05-06 18:49 | 34.94438 | -91.90710 | 38099 ft | 326 kts | 242° |
| 2026-05-06 18:50 | 34.91916 | -91.95306 | 38099 ft | 326 kts | 242° |
| 2026-05-06 18:50 | 34.89391 | -91.99912 | 38098 ft | 327 kts | 242° |
| 2026-05-06 18:51 | 34.86874 | -92.04521 | 38101 ft | 327 kts | 242° |
| 2026-05-06 18:51 | 34.84347 | -92.09117 | 38101 ft | 326 kts | 242° |
| 2026-05-06 18:52 | 34.81841 | -92.13677 | 38102 ft | 326 kts | 242° |
| 2026-05-06 18:52 | 34.79176 | -92.18172 | 38104 ft | 329 kts | 238° |
| 2026-05-06 18:53 | 34.76285 | -92.22508 | 38109 ft | 330 kts | 237° |
| 2026-05-06 18:53 | 34.73369 | -92.26835 | 38115 ft | 330 kts | 238° |
| 2026-05-06 18:54 | 34.70485 | -92.31182 | 38120 ft | 331 kts | 238° |
| 2026-05-06 18:54 | 34.67629 | -92.35512 | 38120 ft | 330 kts | 238° |
| 2026-05-06 18:55 | 34.64752 | -92.39868 | 38120 ft | 331 kts | 238° |
| 2026-05-06 18:55 | 34.61872 | -92.44222 | 38121 ft | 331 kts | 238° |
| 2026-05-06 18:56 | 34.58988 | -92.48584 | 38120 ft | 331 kts | 238° |
| 2026-05-06 18:56 | 34.56118 | -92.52914 | 38121 ft | 331 kts | 238° |
| 2026-05-06 18:57 | 34.53226 | -92.57271 | 38122 ft | 332 kts | 238° |
| 2026-05-06 18:57 | 34.50326 | -92.61626 | 38124 ft | 332 kts | 238° |
| 2026-05-06 18:58 | 34.47430 | -92.65972 | 38123 ft | 331 kts | 238° |
| 2026-05-06 18:58 | 34.44536 | -92.70317 | 38124 ft | 331 kts | 238° |
| 2026-05-06 18:59 | 34.41657 | -92.74630 | 38124 ft | 331 kts | 238° |
| 2026-05-06 18:59 | 34.38761 | -92.78961 | 38123 ft | 331 kts | 238° |
| 2026-05-06 19:00 | 34.35866 | -92.83290 | 38122 ft | 331 kts | 237° |
| 2026-05-06 19:00 | 34.32966 | -92.87620 | 38123 ft | 331 kts | 237° |
| 2026-05-06 19:01 | 34.30068 | -92.91936 | 38125 ft | 330 kts | 237° |
| 2026-05-06 19:01 | 34.27175 | -92.96247 | 38121 ft | 330 kts | 237° |
| 2026-05-06 19:02 | 34.24286 | -93.00553 | 38119 ft | 330 kts | 237° |
| 2026-05-06 19:02 | 34.21409 | -93.04827 | 38114 ft | 330 kts | 237° |
| 2026-05-06 19:03 | 34.18510 | -93.09121 | 38105 ft | 330 kts | 237° |
| 2026-05-06 19:03 | 34.15608 | -93.13418 | 38103 ft | 330 kts | 237° |
| 2026-05-06 19:04 | 34.12706 | -93.17720 | 38098 ft | 330 kts | 237° |
| 2026-05-06 19:04 | 34.09802 | -93.22014 | 38092 ft | 330 kts | 237° |
| 2026-05-06 19:05 | 34.06892 | -93.26306 | 38093 ft | 330 kts | 237° |
| 2026-05-06 19:05 | 34.03988 | -93.30595 | 38088 ft | 330 kts | 237° |
| 2026-05-06 19:06 | 34.01087 | -93.34875 | 38083 ft | 330 kts | 237° |
| 2026-05-06 19:06 | 33.98178 | -93.39148 | 38078 ft | 329 kts | 237° |
| 2026-05-06 19:07 | 33.95271 | -93.43428 | 38059 ft | 331 kts | 237° |
| 2026-05-06 19:07 | 33.92839 | -93.46998 | 38057 ft | 332 kts | 237° |
| 2026-05-06 19:08 | 33.89433 | -93.51990 | 38056 ft | 332 kts | 237° |
| 2026-05-06 19:08 | 33.86978 | -93.55585 | 38056 ft | 332 kts | 237° |
| 2026-05-06 19:09 | 33.84068 | -93.59852 | 38056 ft | 332 kts | 237° |
| 2026-05-06 19:09 | 33.81135 | -93.64139 | 38054 ft | 332 kts | 237° |
| 2026-05-06 19:10 | 33.78193 | -93.68427 | 38052 ft | 332 kts | 237° |
| 2026-05-06 19:10 | 33.75252 | -93.72716 | 38052 ft | 332 kts | 237° |
| 2026-05-06 19:11 | 33.72307 | -93.76998 | 38052 ft | 332 kts | 237° |
| 2026-05-06 19:11 | 33.69364 | -93.81276 | 38051 ft | 332 kts | 237° |
| 2026-05-06 19:12 | 33.66423 | -93.85553 | 38049 ft | 332 kts | 237° |
| 2026-05-06 19:12 | 33.63503 | -93.89794 | 38049 ft | 332 kts | 237° |
| 2026-05-06 19:13 | 33.60559 | -93.94061 | 38049 ft | 332 kts | 237° |
| 2026-05-06 19:13 | 33.57612 | -93.98328 | 38048 ft | 332 kts | 237° |
| 2026-05-06 19:14 | 33.54662 | -94.02586 | 38045 ft | 332 kts | 237° |
| 2026-05-06 19:14 | 33.51707 | -94.06853 | 38045 ft | 333 kts | 237° |
| 2026-05-06 19:15 | 33.48861 | -94.11161 | 38045 ft | 331 kts | 238° |
| 2026-05-06 19:15 | 33.46103 | -94.15589 | 38044 ft | 331 kts | 239° |
| 2026-05-06 19:16 | 33.43337 | -94.20015 | 38044 ft | 332 kts | 238° |
| 2026-05-06 19:16 | 33.40557 | -94.24406 | 38040 ft | 333 kts | 238° |
| 2026-05-06 19:17 | 33.37748 | -94.28810 | 38037 ft | 333 kts | 238° |
| 2026-05-06 19:17 | 33.34933 | -94.33229 | 38036 ft | 334 kts | 238° |
| 2026-05-06 19:18 | 33.32110 | -94.37656 | 38034 ft | 334 kts | 238° |
| 2026-05-06 19:18 | 33.29287 | -94.42076 | 38031 ft | 335 kts | 238° |
| 2026-05-06 19:19 | 33.26464 | -94.46500 | 38028 ft | 335 kts | 238° |
| 2026-05-06 19:19 | 33.23626 | -94.50931 | 38024 ft | 335 kts | 238° |
| 2026-05-06 19:20 | 33.20810 | -94.55330 | 38016 ft | 335 kts | 238° |
| 2026-05-06 19:20 | 33.17970 | -94.59755 | 38012 ft | 336 kts | 238° |
| 2026-05-06 19:21 | 33.15120 | -94.64190 | 38008 ft | 337 kts | 238° |
| 2026-05-06 19:21 | 33.12265 | -94.68632 | 38005 ft | 337 kts | 238° |
| 2026-05-06 19:22 | 33.09407 | -94.73077 | 38001 ft | 337 kts | 238° |
| 2026-05-06 19:22 | 33.06542 | -94.77522 | 38000 ft | 337 kts | 237° |
| 2026-05-06 19:23 | 33.03694 | -94.81923 | 37996 ft | 337 kts | 237° |
| 2026-05-06 19:23 | 33.00831 | -94.86361 | 37992 ft | 338 kts | 237° |
| 2026-05-06 19:24 | 32.97958 | -94.90806 | 37993 ft | 339 kts | 237° |
| 2026-05-06 19:24 | 32.95074 | -94.95247 | 37995 ft | 339 kts | 237° |
| 2026-05-06 19:25 | 32.92192 | -94.99700 | 37996 ft | 340 kts | 237° |
| 2026-05-06 19:25 | 32.89299 | -95.04154 | 37996 ft | 340 kts | 237° |
| 2026-05-06 19:26 | 32.86400 | -95.08610 | 37998 ft | 340 kts | 237° |
| 2026-05-06 19:26 | 32.83502 | -95.13058 | 37997 ft | 340 kts | 237° |
| 2026-05-06 19:27 | 32.80598 | -95.17516 | 37997 ft | 341 kts | 237° |
| 2026-05-06 19:27 | 32.77689 | -95.21977 | 37999 ft | 341 kts | 237° |
| 2026-05-06 19:28 | 32.74780 | -95.26432 | 38001 ft | 342 kts | 237° |
| 2026-05-06 19:28 | 32.71880 | -95.30871 | 38000 ft | 342 kts | 237° |
| 2026-05-06 19:29 | 32.68955 | -95.35339 | 37999 ft | 342 kts | 237° |
| 2026-05-06 19:29 | 32.66028 | -95.39807 | 37995 ft | 343 kts | 237° |
| 2026-05-06 19:30 | 32.63093 | -95.44280 | 37991 ft | 343 kts | 237° |
| 2026-05-06 19:30 | 32.60158 | -95.48744 | 37989 ft | 343 kts | 237° |
| 2026-05-06 19:31 | 32.57216 | -95.53209 | 37989 ft | 344 kts | 237° |
| 2026-05-06 19:31 | 32.52826 | -95.59885 | 37990 ft | 345 kts | 237° |
| 2026-05-06 19:32 | 32.49876 | -95.64364 | 37988 ft | 345 kts | 236° |
| 2026-05-06 19:32 | 32.46916 | -95.68841 | 37992 ft | 346 kts | 236° |
| 2026-05-06 19:33 | 32.43948 | -95.73327 | 37996 ft | 346 kts | 236° |
| 2026-05-06 19:33 | 32.40975 | -95.77813 | 38002 ft | 346 kts | 236° |
| 2026-05-06 19:34 | 32.37999 | -95.82296 | 38006 ft | 346 kts | 236° |
| 2026-05-06 19:34 | 32.35022 | -95.86783 | 38008 ft | 346 kts | 236° |
| 2026-05-06 19:35 | 32.32046 | -95.91264 | 38006 ft | 346 kts | 236° |
| 2026-05-06 19:35 | 32.29062 | -95.95749 | 38006 ft | 347 kts | 236° |
| 2026-05-06 19:36 | 32.26071 | -96.00234 | 38009 ft | 348 kts | 236° |
| 2026-05-06 19:36 | 32.23078 | -96.04721 | 38013 ft | 348 kts | 236° |
| 2026-05-06 19:37 | 32.20100 | -96.09187 | 38020 ft | 348 kts | 236° |
| 2026-05-06 19:37 | 32.17586 | -96.12948 | 38023 ft | 348 kts | 236° |
| 2026-05-06 19:38 | 32.14092 | -96.18158 | 38030 ft | 348 kts | 236° |
| 2026-05-06 19:38 | 32.11084 | -96.22633 | 38028 ft | 348 kts | 236° |
| 2026-05-06 19:39 | 32.08075 | -96.27116 | 38032 ft | 348 kts | 236° |
| 2026-05-06 19:39 | 32.05075 | -96.31597 | 38033 ft | 347 kts | 236° |
| 2026-05-06 19:40 | 32.02074 | -96.36066 | 38036 ft | 348 kts | 236° |
| 2026-05-06 19:40 | 31.99069 | -96.40530 | 38041 ft | 348 kts | 236° |
| 2026-05-06 19:41 | 31.96083 | -96.44965 | 38034 ft | 348 kts | 236° |
| 2026-05-06 19:41 | 31.93068 | -96.49427 | 38031 ft | 348 kts | 236° |
| 2026-05-06 19:42 | 31.90048 | -96.53897 | 38026 ft | 349 kts | 236° |
| 2026-05-06 19:42 | 31.87020 | -96.58380 | 38025 ft | 350 kts | 236° |
| 2026-05-06 19:43 | 31.83981 | -96.62855 | 38027 ft | 350 kts | 236° |
| 2026-05-06 19:43 | 31.80945 | -96.67332 | 38027 ft | 350 kts | 236° |
| 2026-05-06 19:44 | 31.77930 | -96.71780 | 38025 ft | 350 kts | 236° |
| 2026-05-06 19:44 | 31.74895 | -96.76245 | 38026 ft | 350 kts | 236° |
| 2026-05-06 19:45 | 31.71849 | -96.80716 | 38019 ft | 350 kts | 235° |
| 2026-05-06 19:45 | 31.68806 | -96.85183 | 38017 ft | 350 kts | 235° |
| 2026-05-06 19:46 | 31.65780 | -96.89628 | 38021 ft | 350 kts | 235° |
| 2026-05-06 19:46 | 31.62733 | -96.94094 | 38020 ft | 351 kts | 235° |
| 2026-05-06 19:47 | 31.59672 | -96.98567 | 38024 ft | 352 kts | 235° |
| 2026-05-06 19:47 | 31.56603 | -97.03039 | 38028 ft | 352 kts | 235° |
| 2026-05-06 19:48 | 31.53383 | -97.07377 | 38031 ft | 358 kts | 226° |
| 2026-05-06 19:48 | 31.48978 | -97.10255 | 38034 ft | 374 kts | 212° |
| 2026-05-06 19:49 | 31.44166 | -97.12573 | 38035 ft | 374 kts | 212° |
| 2026-05-06 19:49 | 31.39339 | -97.14902 | 37772 ft | 373 kts | 211° |
| 2026-05-06 19:50 | 31.36943 | -97.16055 | 37498 ft | 373 kts | 212° |
| 2026-05-06 19:50 | 31.34542 | -97.17211 | 37222 ft | 373 kts | 212° |
| 2026-05-06 19:50 | 31.32144 | -97.18374 | 36949 ft | 373 kts | 212° |
| 2026-05-06 19:50 | 31.29778 | -97.19523 | 36679 ft | 374 kts | 211° |
| 2026-05-06 19:51 | 31.27376 | -97.20689 | 36394 ft | 374 kts | 212° |
| 2026-05-06 19:51 | 31.24965 | -97.21859 | 36124 ft | 376 kts | 211° |
| 2026-05-06 19:51 | 31.22534 | -97.23037 | 35848 ft | 380 kts | 211° |
| 2026-05-06 19:51 | 31.20075 | -97.24224 | 35578 ft | 384 kts | 211° |
| 2026-05-06 19:52 | 31.17595 | -97.25416 | 35303 ft | 387 kts | 211° |
| 2026-05-06 19:52 | 31.15099 | -97.26615 | 35029 ft | 388 kts | 211° |
| 2026-05-06 19:52 | 31.12600 | -97.27816 | 34750 ft | 389 kts | 211° |
| 2026-05-06 19:52 | 31.10095 | -97.29023 | 34476 ft | 390 kts | 211° |
| 2026-05-06 19:53 | 31.07578 | -97.30235 | 34201 ft | 391 kts | 211° |
| 2026-05-06 19:53 | 31.05055 | -97.31450 | 33922 ft | 393 kts | 211° |
| 2026-05-06 19:53 | 31.02527 | -97.32666 | 33649 ft | 394 kts | 211° |
| 2026-05-06 19:53 | 31.00024 | -97.33867 | 33387 ft | 394 kts | 210° |
| 2026-05-06 19:54 | 30.97477 | -97.35086 | 33140 ft | 396 kts | 210° |
| 2026-05-06 19:54 | 30.94930 | -97.36306 | 32895 ft | 396 kts | 210° |
| 2026-05-06 19:54 | 30.92375 | -97.37528 | 32640 ft | 398 kts | 210° |
| 2026-05-06 19:54 | 30.89807 | -97.38755 | 32387 ft | 398 kts | 210° |
| 2026-05-06 19:55 | 30.87241 | -97.39979 | 32138 ft | 399 kts | 210° |
| 2026-05-06 19:55 | 30.84666 | -97.41209 | 31888 ft | 400 kts | 210° |
| 2026-05-06 19:55 | 30.82089 | -97.42441 | 31633 ft | 400 kts | 210° |
| 2026-05-06 19:55 | 30.79510 | -97.43674 | 31386 ft | 401 kts | 210° |
| 2026-05-06 19:56 | 30.76924 | -97.44910 | 31134 ft | 402 kts | 210° |
| 2026-05-06 19:56 | 30.74334 | -97.46145 | 30884 ft | 402 kts | 210° |
| 2026-05-06 19:56 | 30.71745 | -97.47377 | 30635 ft | 403 kts | 210° |
| 2026-05-06 19:56 | 30.69148 | -97.48616 | 30389 ft | 404 kts | 209° |
| 2026-05-06 19:57 | 30.66550 | -97.49856 | 30134 ft | 404 kts | 209° |
| 2026-05-06 19:57 | 30.63948 | -97.51096 | 29885 ft | 405 kts | 209° |
| 2026-05-06 19:57 | 30.61340 | -97.52338 | 29635 ft | 406 kts | 209° |
| 2026-05-06 19:57 | 30.58719 | -97.53585 | 29384 ft | 407 kts | 209° |
| 2026-05-06 19:58 | 30.56097 | -97.54835 | 29132 ft | 408 kts | 209° |
| 2026-05-06 19:58 | 30.53462 | -97.56090 | 28880 ft | 410 kts | 209° |
| 2026-05-06 19:58 | 30.50823 | -97.57345 | 28630 ft | 411 kts | 208° |
| 2026-05-06 19:58 | 30.48173 | -97.58601 | 28379 ft | 412 kts | 208° |
| 2026-05-06 19:59 | 30.45518 | -97.59859 | 28123 ft | 413 kts | 208° |
| 2026-05-06 19:59 | 30.42891 | -97.61104 | 27878 ft | 414 kts | 208° |
| 2026-05-06 19:59 | 30.40217 | -97.62370 | 27624 ft | 415 kts | 208° |
| 2026-05-06 19:59 | 30.37540 | -97.63637 | 27368 ft | 416 kts | 208° |
| 2026-05-06 20:00 | 30.34851 | -97.64911 | 27124 ft | 417 kts | 208° |
| 2026-05-06 20:00 | 30.32156 | -97.66190 | 26872 ft | 418 kts | 208° |
| 2026-05-06 20:00 | 30.29461 | -97.67470 | 26624 ft | 420 kts | 208° |
| 2026-05-06 20:00 | 30.27667 | -97.68320 | 26454 ft | 420 kts | 208° |
| 2026-05-06 20:01 | 30.24956 | -97.69598 | 26204 ft | 421 kts | 207° |
| 2026-05-06 20:01 | 30.21351 | -97.71290 | 25872 ft | 423 kts | 207° |
| 2026-05-06 20:01 | 30.18616 | -97.72574 | 25619 ft | 424 kts | 207° |
| 2026-05-06 20:01 | 30.15885 | -97.73864 | 25366 ft | 425 kts | 207° |
| 2026-05-06 20:02 | 30.13142 | -97.75162 | 25116 ft | 426 kts | 207° |
| 2026-05-06 20:02 | 30.11285 | -97.76039 | 24950 ft | 427 kts | 207° |
| 2026-05-06 20:02 | 30.08531 | -97.77336 | 24706 ft | 428 kts | 207° |
| 2026-05-06 20:02 | 30.05766 | -97.78637 | 24450 ft | 429 kts | 207° |
| 2026-05-06 20:03 | 30.02991 | -97.79941 | 24196 ft | 431 kts | 207° |
| 2026-05-06 20:03 | 30.00249 | -97.81226 | 23943 ft | 432 kts | 207° |
| 2026-05-06 20:03 | 29.97463 | -97.82531 | 23699 ft | 433 kts | 207° |
| 2026-05-06 20:03 | 29.94714 | -97.83813 | 23448 ft | 416 kts | 207° |
| 2026-05-06 20:04 | 29.92207 | -97.85253 | 23191 ft | 392 kts | 217° |
| 2026-05-06 20:04 | 29.90193 | -97.87244 | 22939 ft | 373 kts | 230° |
| 2026-05-06 20:04 | 29.88730 | -97.89626 | 22693 ft | 358 kts | 242° |
| 2026-05-06 20:04 | 29.87777 | -97.92228 | 22439 ft | 347 kts | 248° |
| 2026-05-06 20:05 | 29.86943 | -97.94798 | 22188 ft | 339 kts | 248° |
| 2026-05-06 20:05 | 29.86109 | -97.97329 | 21938 ft | 337 kts | 247° |
| 2026-05-06 20:05 | 29.85267 | -97.99838 | 21686 ft | 335 kts | 247° |
| 2026-05-06 20:05 | 29.84342 | -98.02287 | 21428 ft | 332 kts | 239° |
| 2026-05-06 20:06 | 29.82954 | -98.04401 | 21188 ft | 332 kts | 226° |
| 2026-05-06 20:06 | 29.81226 | -98.06165 | 20937 ft | 332 kts | 223° |
| 2026-05-06 20:06 | 29.79486 | -98.07912 | 20685 ft | 331 kts | 223° |
| 2026-05-06 20:06 | 29.77757 | -98.09662 | 20433 ft | 330 kts | 223° |
| 2026-05-06 20:07 | 29.76048 | -98.11389 | 20184 ft | 323 kts | 223° |
| 2026-05-06 20:07 | 29.74404 | -98.13048 | 19935 ft | 313 kts | 223° |
| 2026-05-06 20:07 | 29.72788 | -98.14680 | 19685 ft | 304 kts | 223° |
| 2026-05-06 20:07 | 29.71218 | -98.16262 | 19435 ft | 296 kts | 223° |
| 2026-05-06 20:08 | 29.69684 | -98.17804 | 19184 ft | 289 kts | 223° |
| 2026-05-06 20:08 | 29.68180 | -98.19316 | 18933 ft | 285 kts | 223° |
| 2026-05-06 20:08 | 29.66691 | -98.20813 | 18680 ft | 284 kts | 223° |
| 2026-05-06 20:08 | 29.65205 | -98.22306 | 18432 ft | 283 kts | 223° |
| 2026-05-06 20:09 | 29.63723 | -98.23792 | 18180 ft | 282 kts | 223° |
| 2026-05-06 20:09 | 29.62256 | -98.25259 | 17934 ft | 277 kts | 223° |
| 2026-05-06 20:09 | 29.60821 | -98.26698 | 17679 ft | 271 kts | 223° |
| 2026-05-06 20:09 | 29.59413 | -98.28116 | 17438 ft | 267 kts | 223° |
| 2026-05-06 20:10 | 29.58030 | -98.29508 | 17178 ft | 263 kts | 223° |
| 2026-05-06 20:10 | 29.56807 | -98.31024 | 16926 ft | 258 kts | 239° |
| 2026-05-06 20:10 | 29.56246 | -98.32961 | 16675 ft | 259 kts | 261° |
| 2026-05-06 20:10 | 29.56493 | -98.35024 | 16421 ft | 269 kts | 285° |
| 2026-05-06 20:11 | 29.57587 | -98.36817 | 16169 ft | 285 kts | 312° |
| 2026-05-06 20:11 | 29.59410 | -98.37843 | 15908 ft | 305 kts | 343° |
| 2026-05-06 20:11 | 29.61542 | -98.37682 | 15666 ft | 322 kts | 15° |
| 2026-05-06 20:11 | 29.63469 | -98.36341 | 15424 ft | 329 kts | 38° |
| 2026-05-06 20:12 | 29.65208 | -98.34610 | 15169 ft | 331 kts | 40° |
| 2026-05-06 20:12 | 29.66904 | -98.32833 | 14918 ft | 329 kts | 41° |
| 2026-05-06 20:12 | 29.68554 | -98.31022 | 14664 ft | 327 kts | 49° |
| 2026-05-06 20:12 | 29.69589 | -98.28750 | 14405 ft | 319 kts | 82° |
| 2026-05-06 20:13 | 29.69520 | -98.26289 | 14152 ft | 302 kts | 116° |
| 2026-05-06 20:13 | 29.68435 | -98.24359 | 13901 ft | 279 kts | 149° |
| 2026-05-06 20:13 | 29.66770 | -98.23412 | 13655 ft | 261 kts | 175° |
| 2026-05-06 20:13 | 29.65002 | -98.23373 | 13405 ft | 251 kts | 197° |
| 2026-05-06 20:14 | 29.63425 | -98.24131 | 13154 ft | 244 kts | 218° |
| 2026-05-06 20:14 | 29.62091 | -98.25341 | 12906 ft | 245 kts | 222° |
| 2026-05-06 20:14 | 29.60799 | -98.26623 | 12653 ft | 245 kts | 223° |
| 2026-05-06 20:14 | 29.59527 | -98.27921 | 12394 ft | 244 kts | 223° |
| 2026-05-06 20:15 | 29.58260 | -98.29224 | 12152 ft | 244 kts | 223° |
| 2026-05-06 20:15 | 29.57057 | -98.30595 | 11901 ft | 243 kts | 236° |
| 2026-05-06 20:15 | 29.56438 | -98.32385 | 11642 ft | 245 kts | 261° |
| 2026-05-06 20:15 | 29.56647 | -98.34341 | 11391 ft | 255 kts | 288° |
| 2026-05-06 20:16 | 29.57686 | -98.35981 | 11142 ft | 266 kts | 317° |
| 2026-05-06 20:16 | 29.59406 | -98.36829 | 10892 ft | 278 kts | 351° |
| 2026-05-06 20:16 | 29.61319 | -98.36473 | 10639 ft | 285 kts | 26° |
| 2026-05-06 20:16 | 29.62879 | -98.35067 | 10394 ft | 287 kts | 43° |
| 2026-05-06 20:17 | 29.64351 | -98.33527 | 10138 ft | 286 kts | 41° |
| 2026-05-06 20:17 | 29.65841 | -98.32025 | 9890 ft | 283 kts | 40° |
| 2026-05-06 20:17 | 29.67315 | -98.30529 | 9641 ft | 281 kts | 46° |
| 2026-05-06 20:17 | 29.68282 | -98.28625 | 9384 ft | 276 kts | 79° |
| 2026-05-06 20:18 | 29.68205 | -98.26475 | 9134 ft | 269 kts | 112° |
| 2026-05-06 20:18 | 29.67178 | -98.24753 | 8882 ft | 261 kts | 143° |
| 2026-05-06 20:18 | 29.65599 | -98.23891 | 8637 ft | 255 kts | 173° |
| 2026-05-06 20:18 | 29.63860 | -98.24034 | 8385 ft | 252 kts | 201° |
| 2026-05-06 20:19 | 29.62391 | -98.25093 | 8138 ft | 251 kts | 221° |
| 2026-05-06 20:19 | 29.61072 | -98.26411 | 7887 ft | 251 kts | 221° |
| 2026-05-06 20:19 | 29.59765 | -98.27735 | 7641 ft | 250 kts | 222° |
| 2026-05-06 20:19 | 29.58466 | -98.29054 | 7384 ft | 249 kts | 222° |
| 2026-05-06 20:20 | 29.57202 | -98.30415 | 7122 ft | 248 kts | 231° |
| 2026-05-06 20:20 | 29.56457 | -98.32170 | 6876 ft | 247 kts | 259° |
| 2026-05-06 20:20 | 29.56506 | -98.34124 | 6623 ft | 247 kts | 286° |
| 2026-05-06 20:20 | 29.57351 | -98.35831 | 6360 ft | 249 kts | 314° |
| 2026-05-06 20:21 | 29.58805 | -98.36887 | 6117 ft | 250 kts | 342° |
| 2026-05-06 20:21 | 29.60525 | -98.37031 | 5873 ft | 251 kts | 11° |
| 2026-05-06 20:21 | 29.62107 | -98.36229 | 5613 ft | 251 kts | 38° |
| 2026-05-06 20:21 | 29.63420 | -98.34905 | 5363 ft | 251 kts | 42° |
| 2026-05-06 20:22 | 29.64723 | -98.33580 | 5114 ft | 250 kts | 41° |
| 2026-05-06 20:22 | 29.66024 | -98.32270 | 4944 ft | 248 kts | 41° |
| 2026-05-06 20:22 | 29.67325 | -98.30964 | 4899 ft | 248 kts | 42° |
| 2026-05-06 20:22 | 29.68372 | -98.29404 | 4898 ft | 248 kts | 68° |
| 2026-05-06 20:23 | 29.68665 | -98.27476 | 4912 ft | 247 kts | 96° |
| 2026-05-06 20:23 | 29.68138 | -98.25619 | 4911 ft | 246 kts | 124° |
| 2026-05-06 20:23 | 29.66928 | -98.24266 | 4902 ft | 245 kts | 152° |
| 2026-05-06 20:23 | 29.65337 | -98.23714 | 4901 ft | 243 kts | 179° |
| 2026-05-06 20:24 | 29.63670 | -98.24063 | 4893 ft | 243 kts | 206° |
| 2026-05-06 20:24 | 29.62304 | -98.25158 | 4899 ft | 244 kts | 220° |
| 2026-05-06 20:24 | 29.61020 | -98.26431 | 4897 ft | 244 kts | 221° |
| 2026-05-06 20:24 | 29.59750 | -98.27719 | 4893 ft | 243 kts | 222° |
| 2026-05-06 20:25 | 29.58484 | -98.29014 | 4892 ft | 243 kts | 222° |
| 2026-05-06 20:25 | 29.57247 | -98.30336 | 4890 ft | 243 kts | 230° |
| 2026-05-06 20:25 | 29.56502 | -98.32052 | 4892 ft | 242 kts | 259° |
| 2026-05-06 20:25 | 29.56562 | -98.33972 | 4898 ft | 243 kts | 287° |
| 2026-05-06 20:26 | 29.57420 | -98.35632 | 4899 ft | 244 kts | 316° |
| 2026-05-06 20:26 | 29.58879 | -98.36617 | 4905 ft | 246 kts | 345° |
| 2026-05-06 20:26 | 29.60578 | -98.36663 | 4911 ft | 248 kts | 14° |
| 2026-05-06 20:26 | 29.62095 | -98.35769 | 4912 ft | 248 kts | 39° |
| 2026-05-06 20:27 | 29.63391 | -98.34494 | 4905 ft | 249 kts | 41° |
| 2026-05-06 20:27 | 29.64693 | -98.33178 | 4894 ft | 249 kts | 42° |
| 2026-05-06 20:27 | 29.65988 | -98.31863 | 4913 ft | 248 kts | 41° |
| 2026-05-06 20:27 | 29.67274 | -98.30539 | 4898 ft | 248 kts | 45° |
| 2026-05-06 20:28 | 29.68160 | -98.28865 | 4907 ft | 247 kts | 75° |
| 2026-05-06 20:28 | 29.68216 | -98.26913 | 4912 ft | 246 kts | 104° |
| 2026-05-06 20:28 | 29.67453 | -98.25184 | 4900 ft | 245 kts | 133° |
| 2026-05-06 20:28 | 29.66060 | -98.24098 | 4900 ft | 244 kts | 162° |
| 2026-05-06 20:29 | 29.64391 | -98.23917 | 4900 ft | 243 kts | 191° |
| 2026-05-06 20:29 | 29.62851 | -98.24668 | 4899 ft | 243 kts | 218° |
| 2026-05-06 20:29 | 29.61555 | -98.25920 | 4900 ft | 244 kts | 221° |
| 2026-05-06 20:29 | 29.60284 | -98.27208 | 4893 ft | 243 kts | 222° |
| 2026-05-06 20:30 | 29.59018 | -98.28498 | 4902 ft | 243 kts | 222° |
| 2026-05-06 20:30 | 29.56466 | -98.31086 | 4893 ft | 256 kts | 221° |
| 2026-05-06 20:30 | 29.55160 | -98.32396 | 4893 ft | 243 kts | 221° |
| 2026-05-06 20:31 | 29.53897 | -98.33661 | 4896 ft | 240 kts | 221° |
| 2026-05-06 20:31 | 29.52642 | -98.34928 | 4900 ft | 240 kts | 221° |
| 2026-05-06 20:31 | 29.51388 | -98.36194 | 4894 ft | 240 kts | 221° |
| 2026-05-06 20:31 | 29.50129 | -98.37450 | 4901 ft | 240 kts | 221° |
| 2026-05-06 20:32 | 29.48876 | -98.38692 | 4685 ft | 237 kts | 220° |
| 2026-05-06 20:32 | 29.47649 | -98.39900 | 4535 ft | 229 kts | 220° |
| 2026-05-06 20:32 | 29.46444 | -98.41079 | 4282 ft | 226 kts | 220° |
| 2026-05-06 20:32 | 29.45245 | -98.42251 | 3986 ft | 226 kts | 220° |
| 2026-05-06 20:33 | 29.44066 | -98.43403 | 3713 ft | 225 kts | 220° |
| 2026-05-06 20:33 | 29.42875 | -98.44568 | 3413 ft | 225 kts | 221° |
| 2026-05-06 20:33 | 29.41888 | -98.45942 | 3143 ft | 223 kts | 242° |
| 2026-05-06 20:33 | 29.41449 | -98.47611 | 2924 ft | 218 kts | 266° |
| 2026-05-06 20:34 | 29.41662 | -98.49276 | 2718 ft | 205 kts | 293° |
| 2026-05-06 20:34 | 29.42419 | -98.50543 | 2587 ft | 183 kts | 313° |
| 2026-05-06 20:34 | 29.43252 | -98.51568 | 2411 ft | 166 kts | 314° |
| 2026-05-06 20:34 | 29.44070 | -98.52357 | 2280 ft | 148 kts | 341° |
| 2026-05-06 20:35 | 29.45199 | -98.52319 | 2089 ft | 175 kts | 13° |
| 2026-05-06 20:35 | 29.46357 | -98.51980 | 2042 ft | 166 kts | 14° |
| 2026-05-06 20:35 | 29.47444 | -98.51577 | 1880 ft | 162 kts | 26° |
| 2026-05-06 20:35 | 29.48359 | -98.50880 | 1750 ft | 154 kts | 36° |
| 2026-05-06 20:36 | 29.49183 | -98.50110 | 1652 ft | 154 kts | 41° |
| 2026-05-06 20:36 | 29.49992 | -98.49299 | 1442 ft | 158 kts | 42° |
| 2026-05-06 20:36 | 29.50835 | -98.48466 | 1200 ft | 161 kts | 41° |
| 2026-05-06 20:36 | 29.51682 | -98.47632 | 992 ft | 161 kts | 41° |
| 2026-05-06 20:37 | 29.52519 | -98.46797 | 813 ft | 154 kts | 40° |
| 2026-05-06 20:37 | 29.53241 | -98.46087 | 799 ft | 115 kts | 40° |
| 2026-05-06 20:37 | 29.53718 | -98.45617 | 798 ft | 66 kts | 40° |
| 2026-05-06 20:37 | 29.53943 | -98.45399 | 798 ft | 25 kts | 38° |
| 2026-05-06 20:38 | 29.54051 | -98.45345 | 798 ft | 14 kts | 335° |
| 2026-05-06 20:38 | 29.54076 | -98.45448 | 798 ft | 15 kts | 229° |
| 2026-05-06 20:38 | 29.53991 | -98.45536 | 798 ft | 18 kts | 220° |
| 2026-05-06 20:38 | 29.53890 | -98.45635 | 798 ft | 20 kts | 221° |
| 2026-05-06 20:39 | 29.53776 | -98.45749 | 798 ft | 23 kts | 220° |
| 2026-05-06 20:39 | 29.53647 | -98.45876 | 798 ft | 26 kts | 220° |
| 2026-05-06 20:39 | 29.53506 | -98.46015 | 798 ft | 28 kts | 221° |
| 2026-05-06 20:39 | 29.53354 | -98.46166 | 798 ft | 30 kts | 220° |
| 2026-05-06 20:40 | 29.53197 | -98.46319 | 798 ft | 27 kts | 220° |
| 2026-05-06 20:40 | 29.53075 | -98.46440 | 798 ft | 20 kts | 221° |
| 2026-05-06 20:40 | 29.52984 | -98.46529 | 798 ft | 18 kts | 220° |
| 2026-05-06 20:40 | 29.52888 | -98.46627 | 798 ft | 19 kts | 222° |
| 2026-05-06 20:41 | 29.52786 | -98.46724 | 798 ft | 15 kts | 219° |
| 2026-05-06 20:41 | 29.52780 | -98.46818 | 798 ft | 14 kts | 309° |
| 2026-05-06 20:41 | 29.52845 | -98.46904 | 798 ft | 12 kts | 311° |
| 2026-05-06 20:41 | 29.52890 | -98.46962 | 798 ft | 9 kts | 311° |
| 2026-05-06 20:42 | 29.52925 | -98.47025 | 798 ft | 9 kts | 268° |
| 2026-05-06 20:42 | 29.52878 | -98.47051 | 798 ft | 7 kts | 170° |
| 2026-05-06 20:42 | 29.52842 | -98.47067 | 798 ft | 5 kts | 222° |
| 2026-05-06 20:42 | 29.52814 | -98.47096 | 798 ft | 5 kts | 211° |
| 2026-05-06 20:43 | 29.52791 | -98.47083 | 798 ft | 3 kts | 138° |
| 2026-05-06 20:43 | 29.52778 | -98.47070 | 798 ft | 2 kts | 139° |
| 2026-05-06 20:43 | 29.52772 | -98.47063 | 798 ft | 0 kts | 139° |